Flight Briefing for CPX227

Departure Arrival
Daniel K Inouye International Airport (PHNL)
Click to view FAA NOTAMS
Los Angeles International Airport (KLAX)
Click to view FAA NOTAMS
Departure Time Arrival Time
0930 UTC 1510 UTC
Aircraft Distance
B767-300BDSF 2267nm
Departure METAR Arrival METAR
PHNL 212253Z 22011KT 10SM FEW025 FEW045 31/21 A3003 RMK AO2 SLP168 T03060206 $ KLAX 212253Z 25021G30KT 10SM FEW025 FEW060 SCT250 18/09 A2982 RMK AO2 PK WND 25030/2246 SLPNO T01830094
Suggested Route
MKK4 CLUTS R465 CIVIT R585 AUDIA SNAXX RYDRR2


View recent IFR Routes data
Notes



Charts and Procedures

Charts for PHNL
No chart available
Charts for KLAX
No chart available

Windy.com Weather Map